Time;durP1;ratioP1;P1;durP2;ratioP2;P2;SDS_P1;SDS_P2;PMS_P1;PMS_P2;Temp;Humidity;BMP_temperature;BMP_pressure;BME280_temperature;BME280_humidity;BME280_pressure;Samples;Min_cycle;Max_cycle;Signal;HPM_P1;HPM_P2
2022/10/28 00:00:16;;;;;;;13.23;7.35;;;13.90;99.90;;;;;;5058254;28;20056;-88
2022/10/28 00:02:42;;;;;;;11.07;4.93;;;13.90;99.90;;;;;;5061244;28;20056;-88
2022/10/28 00:05:08;;;;;;;11.10;5.82;;;13.80;99.90;;;;;;5041827;28;20053;-88
2022/10/28 00:07:34;;;;;;;10.05;5.70;;;13.80;99.90;;;;;;5058116;28;20045;-88
2022/10/28 00:09:59;;;;;;;13.70;6.05;;;13.90;99.90;;;;;;5069208;28;20680;-88
2022/10/28 00:12:25;;;;;;;11.35;5.97;;;13.80;99.90;;;;;;5048049;28;20056;-89
2022/10/28 00:14:51;;;;;;;18.77;6.72;;;13.80;99.90;;;;;;5044133;28;20038;-88
2022/10/28 00:17:16;;;;;;;14.90;6.30;;;13.90;99.90;;;;;;5059380;28;20074;-88
2022/10/28 00:19:42;;;;;;;11.32;5.47;;;13.90;99.90;;;;;;5059249;28;20048;-88
2022/10/28 00:22:08;;;;;;;12.80;5.63;;;13.90;99.90;;;;;;5038519;28;20056;-87
2022/10/28 00:24:33;;;;;;;17.25;6.60;;;13.90;99.90;;;;;;5046843;28;20060;-88
2022/10/28 00:26:59;;;;;;;12.90;6.38;;;13.90;99.90;;;;;;5064952;28;20045;-88
2022/10/28 00:29:25;;;;;;;12.88;5.72;;;13.90;99.90;;;;;;5068683;28;20070;-88
2022/10/28 00:31:51;;;;;;;11.00;5.90;;;13.80;99.90;;;;;;5065385;28;20041;-88
2022/10/28 00:34:20;;;;;;;12.82;6.20;;;13.90;99.90;;;;;;5080248;28;20049;-88
2022/10/28 00:36:47;;;;;;;11.68;6.10;;;13.80;99.90;;;;;;5070166;28;20479;-88
2022/10/28 00:39:18;;;;;;;11.13;5.40;;;13.90;99.90;;;;;;5042681;28;20044;-88
2022/10/28 00:41:47;;;;;;;18.02;6.43;;;13.90;99.90;;;;;;5052094;28;20082;-88
2022/10/28 00:44:38;;;;;;;22.38;6.70;;;13.90;99.90;;;;;;5058233;28;20445;-87
2022/10/28 00:47:25;;;;;;;16.55;6.60;;;13.90;99.90;;;;;;5077317;28;20036;-87
2022/10/28 00:49:56;;;;;;;16.33;6.85;;;13.90;99.90;;;;;;5059903;28;21406;-87
2022/10/28 00:52:27;;;;;;;15.60;7.43;;;13.80;99.90;;;;;;5056619;28;20037;-87
2022/10/28 00:54:56;;;;;;;16.63;6.93;;;13.90;99.90;;;;;;5061097;28;20044;-87
2022/10/28 00:57:27;;;;;;;15.63;6.82;;;13.80;99.90;;;;;;5062001;28;20047;-87
2022/10/28 00:59:54;;;;;;;14.40;6.20;;;13.80;99.90;;;;;;5059769;28;20041;-88
2022/10/28 01:02:20;;;;;;;14.00;7.20;;;13.80;99.90;;;;;;5063742;28;20052;-87
2022/10/28 01:04:46;;;;;;;12.85;6.55;;;13.80;99.90;;;;;;5065150;28;20037;-88
2022/10/28 01:07:13;;;;;;;16.08;7.40;;;13.80;99.90;;;;;;5067149;28;20402;-87
2022/10/28 01:09:39;;;;;;;18.98;7.30;;;13.80;99.90;;;;;;5061412;28;20052;-87
2022/10/28 01:13:06;;;;;;;17.58;7.70;;;13.80;99.90;;;;;;5059327;28;20060;-87
2022/10/28 01:16:04;;;;;;;18.92;7.82;;;13.80;99.90;;;;;;5021441;28;20065;-88
2022/10/28 01:18:39;;;;;;;18.45;7.45;;;13.80;99.90;;;;;;5059564;28;20061;-87
2022/10/28 01:21:42;;;;;;;18.70;7.63;;;13.70;99.90;;;;;;5051951;28;20534;-87
2022/10/28 01:24:26;;;;;;;;;;;13.80;99.90;;;;;;5068410;28;20061;-87
2022/10/28 01:27:10;;;;;;;15.60;7.70;;;13.80;99.90;;;;;;5041378;28;19921;-87
2022/10/28 01:30:03;;;;;;;23.05;9.10;;;13.80;99.90;;;;;;5051477;28;20511;-87
2022/10/28 01:32:34;;;;;;;;;;;13.80;99.90;;;;;;5067723;28;20105;-89
2022/10/28 01:35:21;;;;;;;17.17;8.73;;;13.90;99.90;;;;;;5067520;28;19920;-88
2022/10/28 01:37:52;;;;;;;23.02;7.25;;;13.90;99.90;;;;;;5060073;28;20087;-88
2022/10/28 01:40:39;;;;;;;20.25;8.63;;;13.90;99.90;;;;;;5065366;28;20080;-88
2022/10/28 01:43:09;;;;;;;15.68;7.65;;;13.90;99.90;;;;;;5066062;28;20053;-88
2022/10/28 01:46:01;;;;;;;18.35;8.32;;;13.90;99.90;;;;;;5065231;28;20083;-88
2022/10/28 01:48:33;;;;;;;16.55;8.18;;;13.90;99.90;;;;;;5066095;28;20074;-87
2022/10/28 01:51:06;;;;;;;21.45;10.05;;;13.90;99.90;;;;;;5043091;28;20057;-88
2022/10/28 01:53:37;;;;;;;21.40;8.38;;;13.90;99.90;;;;;;5053649;28;20044;-88
2022/10/28 01:56:08;;;;;;;19.60;9.52;;;13.90;99.90;;;;;;5059338;28;20082;-88
2022/10/28 01:58:36;;;;;;;17.92;8.15;;;13.90;99.90;;;;;;5072725;28;20045;-88
2022/10/28 02:01:05;;;;;;;18.48;8.73;;;13.80;99.90;;;;;;5066718;28;20051;-88
2022/10/28 02:03:31;;;;;;;20.75;9.52;;;13.80;99.90;;;;;;5048211;28;20075;-88
2022/10/28 02:06:01;;;;;;;22.60;9.15;;;13.80;99.90;;;;;;5083737;28;20045;-88
2022/10/28 02:08:45;;;;;;;24.58;10.57;;;13.80;99.90;;;;;;5063663;28;20100;-88
2022/10/28 02:11:20;;;;;;;25.88;10.13;;;13.80;99.90;;;;;;5077528;28;20049;-88
2022/10/28 02:14:00;;;;;;;20.33;9.23;;;13.80;99.90;;;;;;5044125;28;20045;-88
2022/10/28 02:16:47;;;;;;;20.35;9.63;;;13.80;99.90;;;;;;5060868;28;20376;-88
2022/10/28 02:19:52;;;;;;;25.23;10.82;;;13.80;99.90;;;;;;5062404;28;20045;-88
2022/10/28 02:22:31;;;;;;;16.13;9.43;;;13.70;99.90;;;;;;5062345;28;20143;-89
2022/10/28 02:25:18;;;;;;;20.13;9.95;;;13.70;99.90;;;;;;5071666;28;20072;-88
2022/10/28 02:27:58;;;;;;;20.60;9.43;;;13.70;99.90;;;;;;5065368;28;20534;-88
2022/10/28 02:30:52;;;;;;;23.13;10.32;;;13.70;99.90;;;;;;5047022;28;20109;-88
2022/10/28 02:33:25;;;;;;;18.13;9.57;;;13.70;99.90;;;;;;5041799;28;20055;-87
2022/10/28 02:36:00;;;;;;;23.38;9.50;;;13.70;99.90;;;;;;5064385;28;20073;-88
2022/10/28 02:38:48;;;;;;;22.73;9.43;;;13.70;99.90;;;;;;5065722;28;20055;-88
2022/10/28 02:41:23;;;;;;;23.05;9.70;;;13.60;99.90;;;;;;5069149;28;20045;-88
2022/10/28 02:43:54;;;;;;;27.58;8.55;;;13.60;99.90;;;;;;5062697;28;20037;-88
2022/10/28 02:46:22;;;;;;;21.75;9.20;;;13.70;99.90;;;;;;5046045;28;20045;-88
2022/10/28 02:48:52;;;;;;;19.55;9.30;;;13.70;99.90;;;;;;5045157;28;20055;-88
2022/10/28 02:51:22;;;;;;;17.80;8.82;;;13.60;99.90;;;;;;5053861;28;20498;-88
2022/10/28 02:54:02;;;;;;;19.65;9.10;;;13.60;99.90;;;;;;5054966;28;20049;-87
2022/10/28 02:56:31;;;;;;;21.77;8.88;;;13.60;99.90;;;;;;5054144;28;20547;-88
2022/10/28 02:58:57;;;;;;;16.30;7.38;;;13.60;99.90;;;;;;5065309;28;20116;-87
2022/10/28 03:01:23;;;;;;;15.73;7.72;;;13.60;99.90;;;;;;5063602;28;20064;-88
2022/10/28 03:03:51;;;;;;;15.60;7.90;;;13.70;99.90;;;;;;5057303;28;20048;-88
2022/10/28 03:06:17;;;;;;;14.98;7.75;;;13.60;99.90;;;;;;5045642;28;20115;-87
2022/10/28 03:08:43;;;;;;;23.20;8.32;;;13.60;99.90;;;;;;5048695;28;20108;-88
2022/10/28 03:11:08;;;;;;;18.80;8.57;;;13.50;99.90;;;;;;5040889;28;20046;-88
2022/10/28 03:13:34;;;;;;;17.88;8.60;;;13.60;99.90;;;;;;5056028;28;20045;-88
2022/10/28 03:16:00;;;;;;;20.23;9.20;;;13.60;99.90;;;;;;5052326;28;20049;-88
2022/10/28 03:18:25;;;;;;;15.35;7.53;;;13.60;99.90;;;;;;5054386;28;20051;-88
2022/10/28 03:20:51;;;;;;;13.98;8.35;;;13.60;99.90;;;;;;5058872;28;20058;-88
2022/10/28 03:23:17;;;;;;;20.52;9.07;;;13.60;99.90;;;;;;5061069;28;20163;-88
2022/10/28 03:25:42;;;;;;;17.90;8.38;;;13.60;99.90;;;;;;5060822;28;20041;-89
2022/10/28 03:28:08;;;;;;;21.20;9.70;;;13.60;99.90;;;;;;5045253;28;20071;-88
2022/10/28 03:30:34;;;;;;;16.85;7.82;;;13.60;99.90;;;;;;5048817;28;20048;-88
2022/10/28 03:32:59;;;;;;;15.50;7.75;;;13.50;99.90;;;;;;5052263;28;20067;-88
2022/10/28 03:35:25;;;;;;;13.70;6.97;;;13.40;99.90;;;;;;5056438;28;20095;-88
2022/10/28 03:37:51;;;;;;;16.30;7.25;;;13.40;99.90;;;;;;5077759;28;20044;-88
2022/10/28 03:40:16;;;;;;;16.75;7.93;;;13.40;99.90;;;;;;5055607;28;20100;-88
2022/10/28 03:42:42;;;;;;;20.35;7.07;;;13.40;99.90;;;;;;5055460;28;20487;-88
2022/10/28 03:45:09;;;;;;;14.60;6.47;;;13.40;99.90;;;;;;5060456;28;20057;-88
2022/10/28 03:47:35;;;;;;;18.35;7.72;;;13.40;99.90;;;;;;5043249;28;20041;-88
2022/10/28 03:50:00;;;;;;;16.55;7.65;;;13.40;99.90;;;;;;5059728;28;20048;-88
2022/10/28 03:52:26;;;;;;;16.20;7.57;;;13.40;99.90;;;;;;5068532;28;20049;-88
2022/10/28 03:54:52;;;;;;;17.27;8.68;;;13.40;99.90;;;;;;5067404;28;20262;-88
2022/10/28 03:57:17;;;;;;;17.20;8.15;;;13.40;99.90;;;;;;5065802;28;20033;-88
2022/10/28 03:59:43;;;;;;;19.23;7.45;;;13.40;99.90;;;;;;5030019;28;20036;-88
2022/10/28 04:02:08;;;;;;;18.60;8.13;;;13.50;99.90;;;;;;5046763;28;20041;-87
2022/10/28 04:04:34;;;;;;;16.48;7.68;;;13.50;99.90;;;;;;5045615;28;20123;-87
2022/10/28 04:07:00;;;;;;;18.85;8.25;;;13.50;99.90;;;;;;5050056;28;20090;-88
2022/10/28 04:09:25;;;;;;;22.02;9.07;;;13.50;99.90;;;;;;5061845;28;20132;-88
2022/10/28 04:11:51;;;;;;;22.77;8.38;;;13.40;99.90;;;;;;5040423;28;20045;-88
2022/10/28 04:14:17;;;;;;;22.60;8.63;;;13.40;99.90;;;;;;5045946;28;20048;-88
2022/10/28 04:16:42;;;;;;;14.55;7.72;;;13.50;99.90;;;;;;5067233;28;20045;-88
2022/10/28 04:19:08;;;;;;;17.15;8.80;;;13.40;99.90;;;;;;5062971;28;20118;-88
2022/10/28 04:21:34;;;;;;;20.27;8.05;;;13.40;99.90;;;;;;5043193;28;20141;-88
2022/10/28 04:23:59;;;;;;;13.75;7.47;;;13.40;99.90;;;;;;5068218;28;20033;-88
2022/10/28 04:26:25;;;;;;;22.42;8.07;;;13.40;99.90;;;;;;5058117;28;20049;-89
2022/10/28 04:28:51;;;;;;;18.67;6.20;;;13.40;99.90;;;;;;5059257;28;20036;-89
2022/10/28 04:31:16;;;;;;;20.75;8.57;;;13.40;99.90;;;;;;5037492;28;20055;-90
2022/10/28 04:33:42;;;;;;;13.93;7.82;;;13.40;99.90;;;;;;5045050;28;20049;-90
2022/10/28 04:36:08;;;;;;;17.58;6.97;;;13.30;99.90;;;;;;5051190;28;20519;-90
2022/10/28 04:38:33;;;;;;;14.00;7.45;;;13.30;99.90;;;;;;5025709;28;20120;-91
2022/10/28 04:40:59;;;;;;;20.45;8.63;;;13.30;99.90;;;;;;5059383;28;20060;-90
2022/10/28 04:43:25;;;;;;;77.22;36.38;;;13.30;99.90;;;;;;5044687;28;20052;-91
2022/10/28 04:45:51;;;;;;;74.85;34.15;;;13.30;99.90;;;;;;5047515;28;20025;-91
2022/10/28 04:48:16;;;;;;;56.08;27.30;;;13.30;99.90;;;;;;5045415;28;20045;-91
2022/10/28 04:50:42;;;;;;;55.53;26.50;;;13.30;99.90;;;;;;5050135;28;20056;-91
2022/10/28 04:53:08;;;;;;;25.85;10.57;;;13.30;99.90;;;;;;5043948;28;20041;-90
2022/10/28 04:55:33;;;;;;;20.25;8.88;;;13.20;99.90;;;;;;5063637;28;20079;-90
2022/10/28 04:58:00;;;;;;;17.13;7.57;;;13.20;99.90;;;;;;5061390;28;20056;-90
2022/10/28 05:00:27;;;;;;;18.13;9.00;;;13.20;99.90;;;;;;5060279;28;20033;-88
2022/10/28 05:02:53;;;;;;;16.25;7.75;;;13.10;99.90;;;;;;5073286;28;20041;-89
2022/10/28 05:05:19;;;;;;;19.25;8.18;;;13.10;99.90;;;;;;5068007;28;20068;-88
2022/10/28 05:07:45;;;;;;;15.82;8.68;;;13.10;99.90;;;;;;5059878;28;20087;-88
2022/10/28 05:10:14;;;;;;;16.05;8.18;;;13.10;99.90;;;;;;5052723;28;20477;-89
2022/10/28 05:12:44;;;;;;;22.08;8.85;;;13.10;99.90;;;;;;5048897;28;20037;-89
2022/10/28 05:15:11;;;;;;;14.55;7.50;;;13.10;99.90;;;;;;5066035;28;20045;-89
2022/10/28 05:17:44;;;;;;;16.75;7.07;;;13.10;99.90;;;;;;5054464;28;20522;-89
2022/10/28 05:20:12;;;;;;;12.05;6.00;;;13.10;99.90;;;;;;5041454;28;20041;-90
2022/10/28 05:22:53;;;;;;;12.65;6.30;;;13.00;99.90;;;;;;5074907;28;20072;-90
2022/10/28 05:25:20;;;;;;;11.90;6.63;;;13.00;99.90;;;;;;5067476;28;20048;-89
2022/10/28 05:27:46;;;;;;;12.15;7.05;;;13.00;99.90;;;;;;5054632;28;20299;-89
2022/10/28 05:30:12;;;;;;;23.20;7.88;;;13.00;99.90;;;;;;5053997;28;20056;-89
2022/10/28 05:32:38;;;;;;;17.48;7.78;;;13.00;99.90;;;;;;5071544;28;20051;-89
2022/10/28 05:35:04;;;;;;;15.13;7.28;;;13.00;99.90;;;;;;5066831;28;20044;-89
2022/10/28 05:37:30;;;;;;;20.55;8.07;;;13.00;99.90;;;;;;5067695;28;20090;-90
2022/10/28 05:39:56;;;;;;;16.35;7.93;;;13.00;99.90;;;;;;5048542;28;20129;-89
2022/10/28 05:42:21;;;;;;;18.67;7.70;;;12.90;99.90;;;;;;5074692;28;20044;-90
2022/10/28 05:44:47;;;;;;;11.93;7.63;;;12.90;99.90;;;;;;5057331;28;20522;-90
2022/10/28 05:47:13;;;;;;;17.30;7.88;;;12.90;99.90;;;;;;5045032;28;20041;-89
2022/10/28 05:49:38;;;;;;;15.43;6.95;;;12.90;99.90;;;;;;5067487;28;20119;-89
2022/10/28 05:52:04;;;;;;;13.48;6.75;;;12.90;99.90;;;;;;5063896;28;20037;-90
2022/10/28 05:54:30;;;;;;;16.38;6.90;;;12.80;99.90;;;;;;5060209;28;20053;-88
2022/10/28 05:56:56;;;;;;;13.05;6.47;;;12.90;99.90;;;;;;5072432;28;20072;-89
2022/10/28 05:59:21;;;;;;;17.90;8.20;;;12.80;99.90;;;;;;5067318;28;20052;-89
2022/10/28 06:01:47;;;;;;;38.80;16.88;;;12.70;99.90;;;;;;5047525;28;20104;-88
2022/10/28 06:04:13;;;;;;;12.57;6.63;;;12.70;99.90;;;;;;5061806;28;20143;-89
2022/10/28 06:06:38;;;;;;;17.02;6.60;;;12.80;99.90;;;;;;5064524;28;20052;-90
2022/10/28 06:09:04;;;;;;;13.70;5.70;;;12.70;99.90;;;;;;5057174;28;20116;-89
2022/10/28 06:11:30;;;;;;;14.68;5.72;;;12.70;99.90;;;;;;5048264;28;20045;-88
2022/10/28 06:13:55;;;;;;;14.10;5.97;;;12.60;99.90;;;;;;5076540;28;20040;-89
2022/10/28 06:16:21;;;;;;;12.25;6.05;;;12.60;99.90;;;;;;5045665;28;20069;-89
2022/10/28 06:18:47;;;;;;;21.13;7.03;;;12.60;99.90;;;;;;5044189;28;20044;-89
2022/10/28 06:21:13;;;;;;;14.23;6.82;;;12.50;99.90;;;;;;5043359;28;20057;-89
2022/10/28 06:23:39;;;;;;;12.55;6.32;;;12.50;99.90;;;;;;5061207;28;20049;-89
2022/10/28 06:26:05;;;;;;;14.45;6.05;;;12.60;99.90;;;;;;5058397;28;20051;-88
2022/10/28 06:28:31;;;;;;;20.45;7.53;;;12.50;99.90;;;;;;5060931;28;20081;-89
2022/10/28 06:31:05;;;;;;;11.60;5.55;;;12.50;99.90;;;;;;5059404;28;20049;-89
2022/10/28 06:33:32;;;;;;;12.18;4.95;;;12.50;99.90;;;;;;5062231;28;20068;-88
2022/10/28 06:35:58;;;;;;;17.17;5.35;;;12.60;99.90;;;;;;5063354;28;20053;-89
2022/10/28 06:38:25;;;;;;;10.98;6.10;;;12.60;99.90;;;;;;5058682;28;20045;-90
2022/10/28 06:40:51;;;;;;;10.55;5.35;;;12.60;99.90;;;;;;5061681;28;20052;-87
2022/10/28 06:43:16;;;;;;;48.08;21.13;;;12.50;99.90;;;;;;5043531;28;20044;-90
2022/10/28 06:45:44;;;;;;;14.32;6.82;;;12.50;99.90;;;;;;5065604;28;20048;-89
2022/10/28 06:48:10;;;;;;;22.42;9.73;;;12.50;99.90;;;;;;5079600;28;20056;-90
2022/10/28 06:50:36;;;;;;;17.10;7.22;;;12.50;99.90;;;;;;5062339;28;20037;-91
2022/10/28 06:53:02;;;;;;;13.13;6.63;;;12.60;99.90;;;;;;5069548;28;20051;-90
2022/10/28 06:55:27;;;;;;;14.57;6.18;;;12.60;99.90;;;;;;5044494;28;20052;-89
2022/10/28 06:57:57;;;;;;;17.83;6.35;;;12.70;99.90;;;;;;5062161;28;20063;-90
2022/10/28 07:00:23;;;;;;;16.73;6.03;;;12.70;99.90;;;;;;5053260;28;20044;-90
2022/10/28 07:02:52;;;;;;;12.43;5.95;;;12.80;99.90;;;;;;5055754;28;20464;-90
2022/10/28 07:05:19;;;;;;;21.35;6.40;;;12.80;99.90;;;;;;5047220;28;20040;-89
2022/10/28 07:07:44;;;;;;;15.40;6.20;;;12.90;99.90;;;;;;5043656;28;20041;-90
2022/10/28 07:10:10;;;;;;;12.23;4.88;;;12.90;99.90;;;;;;5048589;28;20184;-90
2022/10/28 07:12:36;;;;;;;10.82;5.32;;;13.00;99.90;;;;;;5074157;28;20093;-89
2022/10/28 07:15:02;;;;;;;16.30;6.10;;;13.00;99.90;;;;;;5034248;28;20029;-93
2022/10/28 07:17:27;;;;;;;10.40;5.03;;;13.10;99.90;;;;;;5062847;28;20057;-92
2022/10/28 07:19:53;;;;;;;9.60;5.30;;;13.20;99.90;;;;;;5060281;28;20041;-92
2022/10/28 07:22:19;;;;;;;15.15;4.70;;;13.30;99.90;;;;;;5054865;28;20045;-91
2022/10/28 07:24:44;;;;;;;12.10;4.82;;;13.30;99.90;;;;;;5068359;28;20503;-92
2022/10/28 07:27:10;;;;;;;13.38;4.95;;;13.40;99.90;;;;;;5064774;28;20044;-92
2022/10/28 07:29:36;;;;;;;6.80;4.57;;;13.50;99.90;;;;;;5042846;28;20052;-94
2022/10/28 07:32:02;;;;;;;11.23;4.88;;;13.60;99.90;;;;;;5069969;28;20044;-93
2022/10/28 07:34:27;;;;;;;8.63;4.53;;;13.60;99.90;;;;;;5077493;28;20059;-90
2022/10/28 07:36:54;;;;;;;11.85;5.28;;;13.60;99.90;;;;;;5062855;28;20090;-91
2022/10/28 07:39:20;;;;;;;13.05;4.60;;;13.70;99.90;;;;;;5079178;28;20045;-92
2022/10/28 07:41:46;;;;;;;10.90;5.65;;;13.80;99.90;;;;;;5080838;28;20074;-92
2022/10/28 07:44:12;;;;;;;17.05;6.03;;;13.80;99.90;;;;;;5078952;28;20045;-92
2022/10/28 07:46:37;;;;;;;24.92;5.90;;;13.90;99.90;;;;;;5070911;28;20045;-90
2022/10/28 07:49:03;;;;;;;10.95;4.53;;;14.00;99.90;;;;;;5049042;28;20045;-90
2022/10/28 07:51:29;;;;;;;16.50;4.75;;;14.00;99.90;;;;;;5057647;28;20440;-92
2022/10/28 07:53:56;;;;;;;10.68;4.70;;;14.10;99.90;;;;;;5042779;28;20491;-90
2022/10/28 07:56:22;;;;;;;19.60;5.00;;;14.20;99.90;;;;;;5060621;28;20407;-90
2022/10/28 07:58:48;;;;;;;11.65;4.88;;;14.30;99.90;;;;;;5059311;28;20052;-91
2022/10/28 08:01:16;;;;;;;10.45;4.13;;;14.40;99.90;;;;;;5058317;28;20137;-91
2022/10/28 08:03:42;;;;;;;12.57;4.82;;;14.50;99.90;;;;;;5047477;28;20040;-90
2022/10/28 08:06:16;;;;;;;17.35;5.25;;;14.50;99.90;;;;;;5062943;28;20113;-90
2022/10/28 08:08:43;;;;;;;14.52;4.32;;;14.60;99.90;;;;;;5052476;28;20048;-89
2022/10/28 08:11:14;;;;;;;12.98;5.32;;;14.70;99.90;;;;;;5025932;28;20072;-89
2022/10/28 08:13:40;;;;;;;9.53;4.23;;;14.70;99.90;;;;;;5065864;28;20060;-90
2022/10/28 08:16:07;;;;;;;11.30;4.57;;;14.80;99.90;;;;;;5059208;28;20303;-90
2022/10/28 08:18:33;;;;;;;9.93;3.88;;;14.90;99.90;;;;;;5048731;28;20045;-89
2022/10/28 08:21:00;;;;;;;9.80;4.10;;;14.90;99.90;;;;;;5057699;28;20127;-89
2022/10/28 08:23:26;;;;;;;11.07;4.25;;;15.00;99.90;;;;;;5058892;28;20053;-89
2022/10/28 08:25:52;;;;;;;10.13;4.07;;;15.10;99.90;;;;;;5056568;28;20053;-89
2022/10/28 08:28:18;;;;;;;9.15;4.03;;;15.20;99.90;;;;;;5043553;28;20102;-89
2022/10/28 08:30:45;;;;;;;7.93;3.85;;;15.20;99.90;;;;;;5057869;28;20052;-89
2022/10/28 08:33:11;;;;;;;10.32;3.85;;;15.40;99.90;;;;;;5078295;28;20058;-90
2022/10/28 08:35:37;;;;;;;12.40;4.32;;;15.50;99.90;;;;;;5064334;28;20052;-92
2022/10/28 08:38:03;;;;;;;10.90;6.03;;;15.60;99.90;;;;;;5044040;28;20037;-90
2022/10/28 08:40:42;;;;;;;10.90;3.22;;;15.70;99.90;;;;;;5075233;28;20064;-90
2022/10/28 08:43:35;;;;;;;11.52;4.20;;;15.80;99.90;;;;;;5062115;28;20040;-92
2022/10/28 08:46:36;;;;;;;10.93;3.38;;;16.00;99.90;;;;;;5064829;28;20032;-92
2022/10/28 08:49:06;;;;;;;9.75;3.95;;;16.10;99.90;;;;;;5059078;28;20053;-93
2022/10/28 08:51:53;;;;;;;8.35;3.08;;;16.30;99.90;;;;;;5064352;28;20040;-90
2022/10/28 08:54:41;;;;;;;13.35;3.75;;;16.60;99.90;;;;;;5054111;28;20094;-87
2022/10/28 08:57:15;;;;;;;14.75;3.70;;;16.80;99.90;;;;;;5042380;28;20053;-88
2022/10/28 08:59:43;;;;;;;8.13;3.78;;;17.00;99.90;;;;;;5073942;28;20100;-92
2022/10/28 09:02:40;;;;;;;11.38;2.45;;;17.20;99.90;;;;;;5074729;28;20053;-91
2022/10/28 09:05:21;;;;;;;8.85;2.83;;;17.30;99.90;;;;;;5072805;28;20048;-93
2022/10/28 09:07:47;;;;;;;12.43;3.22;;;17.50;99.90;;;;;;5051533;28;20041;-92
2022/10/28 09:10:14;;;;;;;10.70;4.22;;;17.60;99.90;;;;;;5063157;28;20064;-94
2022/10/28 09:12:42;;;;;;;6.45;3.47;;;17.60;99.90;;;;;;5060346;28;20477;-94
2022/10/28 09:15:29;;;;;;;16.70;3.63;;;17.70;99.90;;;;;;5069759;28;20091;-93
2022/10/28 09:18:03;;;;;;;9.43;3.80;;;17.70;99.90;;;;;;5057682;28;20055;-92
2022/10/28 09:20:35;;;;;;;6.80;2.63;;;17.80;99.90;;;;;;5041240;28;20077;-90
2022/10/28 09:23:23;;;;;;;8.60;3.40;;;17.80;99.90;;;;;;5041686;28;20041;-92
2022/10/28 09:26:05;;;;;;;6.15;2.50;;;17.80;99.90;;;;;;5054604;28;20084;-92
2022/10/28 09:28:46;;;;;;;6.60;3.28;;;17.90;99.90;;;;;;5074389;28;20098;-89
2022/10/28 09:31:27;;;;;;;7.50;2.78;;;17.90;99.90;;;;;;5083702;28;20063;-90
2022/10/28 09:34:00;;;;;;;15.35;3.60;;;18.00;99.90;;;;;;5080462;28;20062;-89
2022/10/28 09:36:39;;;;;;;9.02;2.88;;;18.00;99.90;;;;;;5058858;28;20099;-91
2022/10/28 09:39:13;;;;;;;7.55;3.03;;;18.10;99.90;;;;;;5057141;28;20044;-90
2022/10/28 09:41:41;;;;;;;10.55;2.60;;;18.10;99.90;;;;;;5057746;28;20061;-90
2022/10/28 09:44:33;;;;;;;4.95;3.10;;;18.10;99.90;;;;;;5047181;28;20117;-91
2022/10/28 09:47:01;;;;;;;7.83;3.30;;;18.10;99.90;;;;;;5056873;28;20090;-89
2022/10/28 09:49:33;;;;;;;10.43;3.15;;;18.10;99.90;;;;;;5060088;28;20045;-88
2022/10/28 09:52:07;;;;;;;12.85;3.13;;;18.10;99.90;;;;;;5086039;28;20067;-89
2022/10/28 09:54:40;;;;;;;8.95;2.45;;;18.10;99.90;;;;;;5072192;28;20048;-90
2022/10/28 09:57:06;;;;;;;9.23;2.58;;;18.10;99.90;;;;;;5072931;28;20058;-88
2022/10/28 09:59:33;;;;;;;5.72;2.47;;;18.10;99.90;;;;;;5080016;28;20064;-90
2022/10/28 10:01:58;;;;;;;7.13;2.67;;;18.10;99.90;;;;;;5068058;28;20595;-88
2022/10/28 10:04:26;;;;;;;9.90;4.03;;;18.20;99.90;;;;;;5062338;28;20056;-87
2022/10/28 10:07:04;;;;;;;9.40;3.38;;;18.20;99.90;;;;;;5080107;28;20076;-90
2022/10/28 10:09:32;;;;;;;9.55;3.03;;;18.20;99.90;;;;;;5079520;28;20049;-87
2022/10/28 10:12:08;;;;;;;9.23;3.08;;;18.30;99.90;;;;;;5054186;28;20056;-88
2022/10/28 10:14:48;;;;;;;13.07;2.97;;;18.30;99.90;;;;;;5069121;28;20040;-89
2022/10/28 10:17:39;;;;;;;9.75;3.20;;;18.50;99.90;;;;;;5070350;28;20094;-88
2022/10/28 10:20:16;;;;;;;6.37;2.67;;;18.60;99.90;;;;;;5059136;28;20566;-88
2022/10/28 10:22:44;;;;;;;10.02;3.75;;;18.80;99.90;;;;;;5044123;28;20314;-89
2022/10/28 10:25:24;;;;;;;5.70;2.80;;;18.90;99.90;;;;;;5066249;28;20052;-88
2022/10/28 10:28:00;;;;;;;7.90;3.00;;;19.00;99.90;;;;;;5069580;28;20044;-88
2022/10/28 10:30:37;;;;;;;10.15;3.30;;;19.00;99.90;;;;;;5076517;28;20048;-90
2022/10/28 10:33:04;;;;;;;9.18;2.70;;;19.10;99.90;;;;;;5060421;28;20060;-90
2022/10/28 10:35:35;;;;;;;6.72;2.13;;;19.00;99.90;;;;;;5043263;28;20107;-90
2022/10/28 10:38:04;;;;;;;7.23;3.17;;;19.00;99.90;;;;;;5060050;28;20049;-89
2022/10/28 10:40:38;;;;;;;12.52;2.92;;;19.00;99.90;;;;;;5060886;28;20323;-89
2022/10/28 10:43:23;;;;;;;8.02;3.47;;;19.00;99.90;;;;;;5059029;28;20427;-88
2022/10/28 10:46:01;;;;;;;7.60;3.25;;;19.00;99.90;;;;;;5067536;28;20537;-90
2022/10/28 10:48:34;;;;;;;7.88;2.95;;;19.00;99.90;;;;;;5067813;28;20048;-88
2022/10/28 10:51:21;;;;;;;8.93;3.45;;;19.00;99.90;;;;;;5069547;28;20460;-90
2022/10/28 10:53:49;;;;;;;6.43;2.97;;;19.00;99.90;;;;;;5072691;28;20051;-89
2022/10/28 10:56:24;;;;;;;6.38;2.67;;;19.00;99.90;;;;;;5076504;28;20055;-89
2022/10/28 10:58:52;;;;;;;11.13;2.85;;;19.00;99.90;;;;;;5067692;28;20041;-88
2022/10/28 11:01:21;;;;;;;12.20;3.28;;;19.00;99.90;;;;;;5074234;28;20112;-89
2022/10/28 11:03:58;;;;;;;7.05;3.13;;;19.10;99.90;;;;;;5064388;28;20060;-89
2022/10/28 11:06:51;;;;;;;9.75;2.97;;;19.20;99.90;;;;;;5063765;28;20097;-89
2022/10/28 11:09:34;;;;;;;11.73;2.25;;;19.30;99.90;;;;;;5060796;28;20053;-93
2022/10/28 11:12:01;;;;;;;9.88;3.20;;;19.50;99.90;;;;;;5068848;28;20074;-90
2022/10/28 11:14:29;;;;;;;9.10;2.38;;;19.80;99.90;;;;;;5061409;28;20041;-88
2022/10/28 11:17:00;;;;;;;5.35;2.40;;;19.90;99.90;;;;;;5074421;28;20072;-89
2022/10/28 11:19:30;;;;;;;10.33;2.77;;;20.00;99.90;;;;;;5073163;28;20049;-91
2022/10/28 11:22:16;;;;;;;10.90;2.78;;;20.00;99.90;;;;;;5065452;28;20426;-93
2022/10/28 11:24:50;;;;;;;8.73;2.47;;;20.00;99.90;;;;;;5075742;28;20048;-91
2022/10/28 11:27:42;;;;;;;5.70;3.10;;;20.10;99.90;;;;;;5066255;28;20119;-92
2022/10/28 11:30:19;;;;;;;13.63;2.58;;;20.10;99.90;;;;;;5042684;28;20049;-90
2022/10/28 11:32:45;;;;;;;14.88;3.10;;;20.10;99.90;;;;;;5070946;28;20059;-91
2022/10/28 11:35:42;;;;;;;7.07;2.83;;;20.10;99.90;;;;;;5074937;28;20057;-92
2022/10/28 11:38:26;;;;;;;15.05;3.15;;;20.20;99.90;;;;;;5059178;28;20053;-90
2022/10/28 11:41:10;;;;;;;6.22;2.80;;;20.20;99.90;;;;;;5079872;28;20059;-91
2022/10/28 11:43:55;;;;;;;14.05;2.60;;;20.30;99.90;;;;;;5069426;28;20087;-90
2022/10/28 11:46:43;;;;;;;8.38;2.55;;;20.40;99.90;;;;;;5041873;28;20049;-90
2022/10/28 11:50:03;;;;;;;7.72;2.50;;;20.50;99.90;;;;;;5068087;28;20056;-90
2022/10/28 11:52:31;;;;;;;15.35;3.00;;;20.50;99.90;;;;;;5037612;28;20103;-91
2022/10/28 11:55:20;;;;;;;8.77;3.63;;;20.60;99.90;;;;;;5069666;28;20086;-93
2022/10/28 11:58:19;;;;;;;9.85;2.83;;;20.70;99.90;;;;;;5063484;28;20079;-92
2022/10/28 12:00:59;;;;;;;12.52;3.20;;;20.60;99.90;;;;;;5061139;28;20045;-92
2022/10/28 12:03:46;;;;;;;6.22;2.92;;;20.60;99.90;;;;;;5074399;28;20124;-91
2022/10/28 12:06:26;;;;;;;10.98;3.17;;;20.50;99.90;;;;;;5061383;28;20033;-90
2022/10/28 12:09:04;;;;;;;15.15;2.63;;;20.50;99.90;;;;;;5058833;28;20053;-89
2022/10/28 12:11:51;;;;;;;5.38;2.40;;;20.50;99.90;;;;;;5061099;28;20049;-88
2022/10/28 12:14:38;;;;;;;10.73;2.65;;;20.40;99.90;;;;;;5059520;28;20080;-88
2022/10/28 12:17:30;;;;;;;13.25;2.97;;;20.50;99.90;;;;;;5060370;28;20105;-87
2022/10/28 12:20:03;;;;;;;14.23;2.58;;;20.50;99.90;;;;;;5064552;28;20076;-89
2022/10/28 12:22:39;;;;;;;5.57;2.88;;;20.50;99.90;;;;;;5063115;28;20127;-89
2022/10/28 12:25:13;;;;;;;5.80;2.63;;;20.50;99.90;;;;;;5072708;28;20110;-86
2022/10/28 12:27:44;;;;;;;8.73;2.58;;;20.60;99.90;;;;;;5076430;28;20055;-85
2022/10/28 12:30:23;;;;;;;9.57;3.17;;;20.60;99.90;;;;;;5051085;28;20045;-86
2022/10/28 12:32:54;;;;;;;4.05;2.33;;;20.60;99.90;;;;;;5058815;28;20056;-86
2022/10/28 12:35:48;;;;;;;7.25;2.67;;;20.60;99.90;;;;;;5057267;28;20053;-88
2022/10/28 12:38:24;;;;;;;14.07;3.47;;;20.60;99.90;;;;;;5065638;28;20392;-90
2022/10/28 12:41:01;;;;;;;9.90;3.50;;;20.60;99.90;;;;;;5065889;28;20478;-87
2022/10/28 12:43:37;;;;;;;13.38;3.03;;;20.60;99.90;;;;;;5069804;28;20044;-88
2022/10/28 12:46:04;;;;;;;9.48;3.03;;;20.60;99.90;;;;;;5059410;28;20095;-88
2022/10/28 12:48:48;;;;;;;10.32;3.03;;;20.60;99.90;;;;;;5066612;28;20049;-86
2022/10/28 12:51:20;;;;;;;7.35;2.60;;;20.60;99.90;;;;;;5059943;28;20571;-87
2022/10/28 12:54:19;;;;;;;12.00;3.30;;;20.60;99.90;;;;;;5044899;28;20049;-90
2022/10/28 12:56:51;;;;;;;9.30;2.40;;;20.60;99.90;;;;;;5057089;28;20159;-90
2022/10/28 12:59:33;;;;;;;7.03;2.45;;;20.50;99.90;;;;;;5062347;28;20048;-88
2022/10/28 13:02:00;;;;;;;12.88;3.38;;;20.50;99.90;;;;;;5071682;28;20105;-92